createdAt,value
2023-01-13T00:02:21.956Z,97733.88
2023-01-13T00:04:48.447Z,97726.41
2023-01-13T00:07:14.907Z,97724.16
2023-01-13T00:09:41.268Z,97727.63
2023-01-13T00:12:07.634Z,97728.81
2023-01-13T00:14:35.939Z,97718.19
2023-01-13T00:17:03.801Z,97721.88
2023-01-13T00:19:30.327Z,97712.56
2023-01-13T00:21:57.354Z,97713.25
2023-01-13T00:24:23.937Z,97714.91
2023-01-13T00:26:50.470Z,97708.44
2023-01-13T00:29:16.992Z,97701.13
2023-01-13T00:31:43.375Z,97695.47
2023-01-13T00:34:09.854Z,97701.31
2023-01-13T00:36:36.232Z,97698.47
2023-01-13T00:39:03.210Z,97699.31
2023-01-13T00:41:49.579Z,97700.63
2023-01-13T00:44:15.952Z,97692.34
2023-01-13T00:46:42.420Z,97696.38
2023-01-13T00:49:08.904Z,97680.72
2023-01-13T00:51:35.276Z,97685.69
2023-01-13T00:54:01.727Z,97677.72
2023-01-13T00:56:39.746Z,97677.06
2023-01-13T00:59:07.099Z,97674.72
2023-01-13T01:01:33.592Z,97683.66
2023-01-13T01:04:00.059Z,97680.06
2023-01-13T01:06:27.583Z,97692.19
2023-01-13T01:08:55.165Z,97684.56
2023-01-13T01:11:27.360Z,97691.88
2023-01-13T01:13:55.416Z,97689.22
2023-01-13T01:16:24.523Z,97694.38
2023-01-13T01:18:52.306Z,97679.78
2023-01-13T01:21:19.795Z,97686.22
2023-01-13T01:23:46.394Z,97687.41
2023-01-13T01:26:15.702Z,97680.41
2023-01-13T01:28:43.097Z,97672.94
2023-01-13T01:31:18.504Z,97676.06
2023-01-13T01:33:48.871Z,97669.91
2023-01-13T01:36:17.479Z,97666.91
2023-01-13T01:38:44.778Z,97671.25
2023-01-13T01:41:15.631Z,97670.38
2023-01-13T01:44:08.553Z,97676.34
2023-01-13T01:46:38.299Z,97678.34
2023-01-13T01:52:06.877Z,97685.03
2023-01-13T01:54:37.587Z,97675.06
2023-01-13T01:57:04.798Z,97676.88
2023-01-13T01:59:35.113Z,97679.72
2023-01-13T02:02:02.263Z,97669.44
2023-01-13T02:04:33.730Z,97667.44
2023-01-13T02:07:02.264Z,97688.56
2023-01-13T02:09:29.918Z,97667.97
2023-01-13T02:12:15.022Z,97671.44
2023-01-13T02:14:42.395Z,97672.75
2023-01-13T02:17:26.085Z,97659.44
2023-01-13T02:20:21.657Z,97653.81
2023-01-13T02:23:41.964Z,97651.31
2023-01-13T02:26:37.224Z,97653.63
2023-01-13T02:29:57.061Z,97645.63
2023-01-13T02:32:33.268Z,97643.00
2023-01-13T02:35:27.333Z,97641.84
2023-01-13T02:37:56.567Z,97623.56
2023-01-13T02:40:46.185Z,97626.56
2023-01-13T02:43:38.763Z,97629.22
2023-01-13T02:46:09.820Z,97624.91
2023-01-13T02:48:39.659Z,97623.41
2023-01-13T02:51:12.710Z,97628.72
2023-01-13T02:53:46.270Z,97641.81
2023-01-13T02:56:14.924Z,97634.53
2023-01-13T02:58:43.668Z,97632.34
2023-01-13T03:01:10.148Z,97635.72
2023-01-13T03:03:36.767Z,97620.94
2023-01-13T03:06:23.188Z,97621.44
2023-01-13T03:09:01.015Z,97616.28
2023-01-13T03:11:33.394Z,97608.78
2023-01-13T03:14:25.404Z,97612.28
2023-01-13T03:17:05.274Z,97599.81
2023-01-13T03:20:09.137Z,97604.31
2023-01-13T03:22:48.682Z,97594.19
2023-01-13T03:25:24.088Z,97596.00
2023-01-13T03:27:55.648Z,97609.81
2023-01-13T03:30:33.266Z,97608.31
2023-01-13T03:33:05.187Z,97605.53
2023-01-13T03:35:40.662Z,97602.81
2023-01-13T03:38:39.385Z,97612.63
2023-01-13T03:41:10.159Z,97596.50
2023-01-13T03:44:12.578Z,97597.03
2023-01-13T03:46:46.809Z,97605.13
2023-01-13T03:49:18.073Z,97607.31
2023-01-13T03:51:49.233Z,97607.31
2023-01-13T03:54:19.017Z,97601.16
2023-01-13T03:56:50.324Z,97602.66
2023-01-13T03:59:21.303Z,97602.13
2023-01-13T04:02:09.806Z,97592.47
2023-01-13T04:04:45.359Z,97589.09
2023-01-13T04:07:32.851Z,97593.97
2023-01-13T04:10:03.965Z,97600.47
2023-01-13T04:12:52.925Z,97600.47
2023-01-13T04:15:22.885Z,97580.94
2023-01-13T04:17:50.518Z,97583.59
2023-01-13T04:20:17.699Z,97574.78
2023-01-13T04:22:44.105Z,97595.66
2023-01-13T04:25:11.497Z,97597.63
2023-01-13T04:27:38.095Z,97597.34
2023-01-13T04:30:05.388Z,97597.34
2023-01-13T04:32:31.815Z,97602.94
2023-01-13T04:34:58.212Z,97604.41
2023-01-13T04:37:24.655Z,97604.56
2023-01-13T04:39:51.127Z,97613.06
2023-01-13T04:42:17.549Z,97615.56
2023-01-13T04:44:43.951Z,97622.22
2023-01-13T04:47:10.340Z,97632.69
2023-01-13T04:49:36.710Z,97659.22
2023-01-13T04:52:03.950Z,97685.56
2023-01-13T04:54:30.494Z,97696.09
2023-01-13T04:56:57.035Z,97686.84
2023-01-13T04:59:23.463Z,97698.13
2023-01-13T05:01:50.015Z,97697.56
2023-01-13T05:04:17.058Z,97692.28
2023-01-13T05:06:43.466Z,97690.09
2023-01-13T05:09:12.337Z,97704.25
2023-01-13T05:11:57.774Z,97704.41
2023-01-13T05:14:42.522Z,97702.59
2023-01-13T05:17:10.384Z,97718.06
2023-01-13T05:19:40.875Z,97721.75
2023-01-13T05:22:25.983Z,97709.19
2023-01-13T05:25:10.848Z,97717.31
2023-01-13T05:27:37.527Z,97721.28
2023-01-13T05:30:05.140Z,97704.84
2023-01-13T05:32:31.674Z,97709.91
2023-01-13T05:34:58.227Z,97704.16
2023-01-13T05:37:25.854Z,97710.44
2023-01-13T05:40:11.247Z,97703.22
2023-01-13T05:42:56.785Z,97710.34
2023-01-13T05:45:23.569Z,97702.38
2023-01-13T05:47:50.237Z,97691.16
2023-01-13T05:50:17.103Z,97697.78
2023-01-13T05:52:43.718Z,97688.09
2023-01-13T05:55:11.271Z,97696.06
2023-01-13T05:57:37.651Z,97707.81
2023-01-13T06:00:04.901Z,97703.34
2023-01-13T06:02:31.364Z,97700.47
2023-01-13T06:04:57.935Z,97716.66
2023-01-13T06:07:24.343Z,97696.97
2023-01-13T06:09:50.799Z,97676.78
2023-01-13T06:12:17.259Z,97663.00
2023-01-13T06:14:43.721Z,97647.03
2023-01-13T06:17:12.584Z,97646.78
2023-01-13T06:19:39.332Z,97648.88
2023-01-13T06:22:15.804Z,97657.22
2023-01-13T06:24:43.276Z,97668.38
2023-01-13T06:27:10.172Z,97679.78
2023-01-13T06:29:36.592Z,97695.28
2023-01-13T06:32:07.266Z,97683.94
2023-01-13T06:34:35.531Z,97687.41
2023-01-13T06:37:03.564Z,97691.06
2023-01-13T06:39:31.167Z,97672.28
2023-01-13T06:42:17.180Z,97670.91
2023-01-13T06:44:45.291Z,97684.44
2023-01-13T06:47:11.965Z,97690.97
2023-01-13T06:49:38.462Z,97698.75
2023-01-13T06:52:05.222Z,97676.44
2023-01-13T06:54:31.887Z,97678.41
2023-01-13T06:56:58.385Z,97666.81
2023-01-13T06:59:25.270Z,97673.34
2023-01-13T07:01:51.906Z,97667.78
2023-01-13T07:04:19.082Z,97654.66
2023-01-13T07:06:45.557Z,97666.78
2023-01-13T07:09:12.151Z,97674.56
2023-01-13T07:11:38.632Z,97682.75
2023-01-13T07:14:23.554Z,97691.25
2023-01-13T07:16:52.355Z,97675.63
2023-01-13T07:19:23.579Z,97684.56
2023-01-13T07:21:52.182Z,97697.97
2023-01-13T07:24:19.903Z,97691.97
2023-01-13T07:26:46.376Z,97699.81
2023-01-13T07:29:12.888Z,97702.91
2023-01-13T07:31:40.069Z,97704.13
2023-01-13T07:34:07.548Z,97710.84
2023-01-13T07:36:34.373Z,97709.34
2023-01-13T07:39:01.579Z,97719.69
2023-01-13T07:41:46.605Z,97729.84
2023-01-13T07:44:13.028Z,97730.56
2023-01-13T07:46:40.326Z,97739.38
2023-01-13T07:49:07.290Z,97731.69
2023-01-13T07:51:39.334Z,97747.66
2023-01-13T07:54:06.644Z,97755.59
2023-01-13T07:56:33.086Z,97756.44
2023-01-13T07:59:00.557Z,97753.28
2023-01-13T08:01:28.150Z,97745.81
2023-01-13T08:03:56.237Z,97749.41
2023-01-13T08:06:23.118Z,97738.28
2023-01-13T08:08:49.584Z,97747.16
2023-01-13T08:11:16.234Z,97745.16
2023-01-13T08:13:42.695Z,97753.34
2023-01-13T08:16:12.536Z,97757.81
2023-01-13T08:18:39.428Z,97759.81
2023-01-13T08:21:09.078Z,97756.28
2023-01-13T08:23:36.246Z,97761.03
2023-01-13T08:26:05.746Z,97759.94
2023-01-13T08:28:32.476Z,97767.59
2023-01-13T08:31:00.212Z,97768.19
2023-01-13T08:33:26.764Z,97759.34
2023-01-13T08:35:53.337Z,97763.38
2023-01-13T08:38:20.371Z,97764.16
2023-01-13T08:40:46.938Z,97779.38
2023-01-13T08:43:13.691Z,97780.00
2023-01-13T08:45:40.159Z,97772.47
2023-01-13T08:48:06.600Z,97774.69
2023-01-13T08:50:33.245Z,97786.59
2023-01-13T08:53:00.147Z,97794.09
2023-01-13T08:55:26.577Z,97795.28
2023-01-13T08:57:56.213Z,97801.72
2023-01-13T09:00:29.829Z,97808.06
2023-01-13T09:02:56.271Z,97808.94
2023-01-13T09:05:22.873Z,97812.81
2023-01-13T09:07:49.297Z,97815.81
2023-01-13T09:10:16.094Z,97810.75
2023-01-13T09:13:01.210Z,97820.78
2023-01-13T09:15:27.703Z,97831.16
2023-01-13T09:17:54.461Z,97826.44
2023-01-13T09:20:20.876Z,97820.78
2023-01-13T09:22:47.399Z,97819.94
2023-01-13T09:25:13.873Z,97833.97
2023-01-13T09:27:40.368Z,97829.59
2023-01-13T09:30:07.760Z,97839.84
2023-01-13T09:32:35.079Z,97829.72
2023-01-13T09:35:01.677Z,97829.44
2023-01-13T09:37:30.661Z,97829.75
2023-01-13T09:39:57.139Z,97835.41
2023-01-13T09:43:06.201Z,97824.78
2023-01-13T09:45:36.025Z,97837.09
2023-01-13T09:48:13.594Z,97852.19
2023-01-13T09:50:55.471Z,97853.50
2023-01-13T09:53:28.225Z,97842.88
2023-01-13T09:55:55.372Z,97845.53
2023-01-13T09:58:22.070Z,97843.34
2023-01-13T10:01:06.233Z,97857.41
2023-01-13T10:03:35.279Z,97853.06
2023-01-13T10:06:18.151Z,97857.28
2023-01-13T10:08:46.199Z,97845.44
2023-01-13T10:11:38.556Z,97848.28
2023-01-13T10:14:23.767Z,97855.97
2023-01-13T10:17:18.603Z,97845.31
2023-01-13T10:19:52.584Z,97847.81
2023-01-13T10:22:31.143Z,97840.63
2023-01-13T10:25:41.936Z,97855.31
2023-01-13T10:28:17.070Z,97849.47
2023-01-13T10:30:47.103Z,97850.66
2023-01-13T10:33:20.762Z,97849.84
2023-01-13T10:35:58.017Z,97849.09
2023-01-13T10:38:35.361Z,97847.72
2023-01-13T10:41:05.376Z,97871.13
2023-01-13T10:43:32.431Z,97850.63
2023-01-13T10:46:10.255Z,97867.94
2023-01-13T10:48:42.379Z,97854.44
2023-01-13T10:51:26.200Z,97851.38
2023-01-13T10:54:19.188Z,97853.19
2023-01-13T10:56:46.739Z,97860.44
2023-01-13T10:59:24.869Z,97857.72
2023-01-13T11:01:59.446Z,97858.34
2023-01-13T11:04:55.029Z,97864.13
2023-01-13T11:07:35.671Z,97858.97
2023-01-13T11:10:20.246Z,97866.34
2023-01-13T11:13:18.250Z,97860.72
2023-01-13T11:15:53.866Z,97851.81
2023-01-13T11:18:35.787Z,97862.59
2023-01-13T11:21:08.050Z,97867.25
2023-01-13T11:23:41.437Z,97856.00
2023-01-13T11:26:18.736Z,97851.00
2023-01-13T11:29:02.002Z,97845.81
2023-01-13T11:31:41.698Z,97854.47
2023-01-13T11:34:32.562Z,97861.63
2023-01-13T11:37:01.622Z,97856.84
2023-01-13T11:39:47.016Z,97864.44
2023-01-13T11:42:28.988Z,97863.63
2023-01-13T11:45:17.013Z,97866.59
2023-01-13T11:47:47.457Z,97876.16
2023-01-13T11:50:18.595Z,97863.31
2023-01-13T11:53:03.976Z,97882.97
2023-01-13T11:55:58.943Z,97881.13
2023-01-13T11:58:50.727Z,97873.88
2023-01-13T12:01:27.481Z,97877.19
2023-01-13T12:04:27.414Z,97869.72
2023-01-13T12:07:00.113Z,97885.13
2023-01-13T12:09:40.946Z,97862.53
2023-01-13T12:12:23.338Z,97875.41
2023-01-13T12:15:21.361Z,97884.69
2023-01-13T12:18:18.154Z,97867.50
2023-01-13T12:21:12.420Z,97863.41
2023-01-13T12:23:46.787Z,97865.72
2023-01-13T12:26:18.593Z,97870.88
2023-01-13T12:29:06.280Z,97873.06
2023-01-13T12:31:36.795Z,97869.06
2023-01-13T12:34:12.366Z,97882.44
2023-01-13T12:37:20.894Z,97878.22
2023-01-13T12:40:05.832Z,97868.78
2023-01-13T12:43:16.082Z,97862.75
2023-01-13T12:45:42.662Z,97854.28
2023-01-13T12:49:04.886Z,97853.41
2023-01-13T12:51:57.444Z,97858.69
2023-01-13T12:54:39.188Z,97861.38
2023-01-13T12:57:21.594Z,97865.50
2023-01-13T13:00:03.421Z,97874.19
2023-01-13T13:02:31.363Z,97854.91
2023-01-13T13:05:01.772Z,97860.56
2023-01-13T13:07:31.105Z,97865.84
2023-01-13T13:10:02.372Z,97874.69
2023-01-13T13:13:11.094Z,97881.16
2023-01-13T13:15:37.591Z,97871.81
2023-01-13T13:18:23.796Z,97867.38
2023-01-13T13:21:10.730Z,97891.06
2023-01-13T13:24:05.406Z,97899.31
2023-01-13T13:26:37.544Z,97899.84
2023-01-13T13:29:28.606Z,97917.69
2023-01-13T13:32:06.743Z,97932.66
2023-01-13T13:34:57.467Z,97944.88
2023-01-13T13:38:09.453Z,97944.66
2023-01-13T13:41:01.450Z,97915.09
2023-01-13T13:43:49.379Z,97930.47
2023-01-13T13:46:49.234Z,97923.63
2023-01-13T13:49:21.978Z,97922.66
2023-01-13T13:52:02.170Z,97922.94
2023-01-13T13:54:29.381Z,97930.59
2023-01-13T13:56:56.321Z,97928.00
2023-01-13T13:59:26.247Z,97931.47
2023-01-13T14:02:02.126Z,97935.53
2023-01-13T14:04:36.941Z,97931.28
2023-01-13T14:07:18.132Z,97943.91
2023-01-13T14:09:47.019Z,97953.59
2023-01-13T14:12:19.912Z,97940.38
2023-01-13T14:14:47.532Z,97949.53
2023-01-13T14:17:25.617Z,97957.66
2023-01-13T14:20:14.504Z,97957.03
2023-01-13T14:22:47.199Z,97953.66
2023-01-13T14:25:39.562Z,97957.94
2023-01-13T14:28:30.208Z,97958.38
2023-01-13T14:30:57.431Z,97956.53
2023-01-13T14:33:38.876Z,97969.09
2023-01-13T14:36:16.648Z,97972.06
2023-01-13T14:38:46.019Z,97966.25
2023-01-13T14:41:47.181Z,97970.13
2023-01-13T14:44:25.664Z,97971.69
2023-01-13T14:46:55.195Z,97970.88
2023-01-13T14:49:28.841Z,97961.03
2023-01-13T14:52:05.880Z,97981.31
2023-01-13T14:54:43.111Z,97976.84
2023-01-13T14:57:31.389Z,97982.31
2023-01-13T15:00:16.405Z,97993.00
2023-01-13T15:02:46.927Z,97991.50
2023-01-13T15:05:19.367Z,97991.50
2023-01-13T15:08:12.315Z,98001.81
2023-01-13T15:10:44.755Z,98002.06
2023-01-13T15:13:22.334Z,98014.63
2023-01-13T15:15:54.271Z,97997.72
2023-01-13T15:18:20.789Z,98019.22
2023-01-13T15:20:47.540Z,98026.47
2023-01-13T15:23:15.105Z,98015.59
2023-01-13T15:25:43.005Z,98035.72
2023-01-13T15:28:24.818Z,98041.00
2023-01-13T15:30:53.339Z,98036.56
2023-01-13T15:33:21.223Z,98039.38
2023-01-13T15:35:50.894Z,98047.00
2023-01-13T15:38:20.957Z,98046.88
2023-01-13T15:40:49.284Z,98040.03
2023-01-13T15:43:43.368Z,98050.66
2023-01-13T15:46:32.156Z,98049.94
2023-01-13T15:49:02.176Z,98043.13
2023-01-13T15:51:28.553Z,98050.66
2023-01-13T15:53:55.035Z,98049.69
2023-01-13T15:56:26.622Z,98059.31
2023-01-13T15:58:53.464Z,98048.28
2023-01-13T16:01:20.092Z,98055.94
2023-01-13T16:03:46.626Z,98058.34
2023-01-13T16:06:20.433Z,98066.44
2023-01-13T16:08:47.167Z,98077.34
2023-01-13T16:11:13.853Z,98081.50
2023-01-13T16:13:40.323Z,98091.00
2023-01-13T16:16:17.919Z,98092.38
2023-01-13T16:18:44.461Z,98096.41
2023-01-13T16:21:13.898Z,98099.94
2023-01-13T16:23:40.845Z,98098.22
2023-01-13T16:26:27.264Z,98098.22
2023-01-13T16:28:56.650Z,98109.94
2023-01-13T16:31:29.199Z,98112.47
2023-01-13T16:33:55.932Z,98120.56
2023-01-13T16:36:22.732Z,98126.97
2023-01-13T16:38:52.012Z,98123.34
2023-01-13T16:41:19.860Z,98125.16
2023-01-13T16:43:47.060Z,98134.53
2023-01-13T16:46:22.895Z,98128.78
2023-01-13T16:48:50.547Z,98138.94
2023-01-13T16:51:16.990Z,98144.53
2023-01-13T16:53:43.470Z,98143.16
2023-01-13T16:56:26.344Z,98153.47
2023-01-13T16:58:54.515Z,98146.19
2023-01-13T17:01:33.035Z,98143.00
2023-01-13T17:03:59.664Z,98165.34
2023-01-13T17:06:35.242Z,98158.88
2023-01-13T17:09:07.468Z,98165.44
2023-01-13T17:11:34.649Z,98178.81
2023-01-13T17:14:01.123Z,98185.50
2023-01-13T17:16:44.384Z,98194.41
2023-01-13T17:19:12.078Z,98198.03
2023-01-13T17:21:38.471Z,98200.94
2023-01-13T17:24:06.303Z,98201.38
2023-01-13T17:26:48.967Z,98198.03
2023-01-13T17:29:26.506Z,98200.94
2023-01-13T17:31:53.425Z,98200.81
2023-01-13T17:34:21.109Z,98205.53
2023-01-13T17:36:47.812Z,98194.38
2023-01-13T17:39:20.037Z,98208.06
2023-01-13T17:41:47.031Z,98188.09
2023-01-13T17:44:14.624Z,98200.81
2023-01-13T17:46:42.156Z,98201.78
2023-01-13T17:49:13.040Z,98208.63
2023-01-13T17:51:39.471Z,98216.69
2023-01-13T17:54:06.019Z,98210.53
2023-01-13T17:56:32.515Z,98200.41
2023-01-13T17:58:58.935Z,98212.38
2023-01-13T18:01:30.726Z,98232.16
2023-01-13T18:03:57.232Z,98233.94
2023-01-13T18:06:24.107Z,98235.97
2023-01-13T18:08:51.691Z,98248.97
2023-01-13T18:11:19.997Z,98247.03
2023-01-13T18:13:48.042Z,98237.31
2023-01-13T18:16:17.169Z,98245.41
2023-01-13T18:18:46.627Z,98237.84
2023-01-13T18:21:43.416Z,98238.94
2023-01-13T18:24:31.141Z,98252.00
2023-01-13T18:27:16.375Z,98258.69
2023-01-13T18:29:43.345Z,98262.38
2023-01-13T18:32:10.013Z,98264.91
2023-01-13T18:34:37.493Z,98263.91
2023-01-13T18:37:05.336Z,98256.25
2023-01-13T18:39:31.909Z,98261.84
2023-01-13T18:42:16.952Z,98272.59
2023-01-13T18:44:43.424Z,98270.63
2023-01-13T18:47:10.002Z,98286.59
2023-01-13T18:49:36.704Z,98292.44
2023-01-13T18:52:03.466Z,98293.09
2023-01-13T18:54:30.000Z,98304.09
2023-01-13T18:56:57.461Z,98295.84
2023-01-13T18:59:24.801Z,98296.72
2023-01-13T19:01:51.920Z,98303.53
2023-01-13T19:04:18.410Z,98305.50
2023-01-13T19:06:49.842Z,98310.19
2023-01-13T19:09:17.529Z,98311.03
2023-01-13T19:11:46.726Z,98309.28
2023-01-13T19:14:33.992Z,98300.81
2023-01-13T19:17:02.351Z,98316.72
2023-01-13T19:19:29.206Z,98332.59
2023-01-13T19:21:56.413Z,98329.41
2023-01-13T19:24:25.916Z,98340.09
2023-01-13T19:26:53.449Z,98348.09
2023-01-13T19:29:20.068Z,98350.75
2023-01-13T19:31:46.659Z,98349.72
2023-01-13T19:34:13.468Z,98355.59
2023-01-13T19:36:40.041Z,98367.88
2023-01-13T19:39:06.503Z,98369.53
2023-01-13T19:41:51.516Z,98377.19
2023-01-13T19:44:36.768Z,98384.97
2023-01-13T19:47:04.069Z,98383.22
2023-01-13T19:49:30.568Z,98392.09
2023-01-13T19:51:57.070Z,98380.47
2023-01-13T19:54:23.942Z,98391.84
2023-01-13T19:56:50.458Z,98395.06
2023-01-13T19:59:21.992Z,98405.19
2023-01-13T20:01:48.777Z,98404.56
2023-01-13T20:04:17.244Z,98411.22
2023-01-13T20:06:44.187Z,98408.44
2023-01-13T20:09:11.463Z,98413.06
2023-01-13T20:11:38.086Z,98418.41
2023-01-13T20:14:04.831Z,98420.31
2023-01-13T20:16:33.139Z,98427.03
2023-01-13T20:18:59.869Z,98425.34
2023-01-13T20:21:26.523Z,98420.25
2023-01-13T20:23:53.332Z,98424.13
2023-01-13T20:26:20.786Z,98422.31
2023-01-13T20:28:47.584Z,98422.31
2023-01-13T20:31:14.809Z,98439.63
2023-01-13T20:33:41.677Z,98436.59
2023-01-13T20:36:09.183Z,98445.50
2023-01-13T20:38:38.609Z,98447.91
2023-01-13T20:41:26.728Z,98450.22
2023-01-13T20:43:54.042Z,98461.16
2023-01-13T20:46:21.009Z,98463.47
2023-01-13T20:48:47.553Z,98476.38
2023-01-13T20:51:14.337Z,98483.97
2023-01-13T20:53:41.518Z,98478.53
2023-01-13T20:56:09.191Z,98490.38
2023-01-13T20:58:38.345Z,98495.28
2023-01-13T21:01:05.511Z,98497.50
2023-01-13T21:03:32.086Z,98491.63
2023-01-13T21:05:58.631Z,98506.75
2023-01-13T21:08:25.184Z,98497.88
2023-01-13T21:10:51.644Z,98502.19
2023-01-13T21:13:36.900Z,98496.91
2023-01-13T21:16:03.746Z,98509.03
2023-01-13T21:18:49.002Z,98512.31
2023-01-13T21:21:16.152Z,98510.16
2023-01-13T21:23:44.252Z,98508.00
2023-01-13T21:26:14.503Z,98513.00
2023-01-13T21:28:41.065Z,98522.19
2023-01-13T21:31:09.359Z,98521.25
2023-01-13T21:33:36.295Z,98526.44
2023-01-13T21:36:11.675Z,98532.78
2023-01-13T21:38:38.929Z,98535.06
2023-01-13T21:41:08.058Z,98527.13
2023-01-13T21:43:54.935Z,98521.13
2023-01-13T21:46:42.160Z,98534.59
2023-01-13T21:49:08.881Z,98533.28
2023-01-13T21:51:36.730Z,98541.47
2023-01-13T21:54:03.396Z,98545.78
2023-01-13T21:56:29.948Z,98543.25
2023-01-13T21:58:56.627Z,98540.34
2023-01-13T22:01:23.440Z,98537.72
2023-01-13T22:04:08.712Z,98544.78
2023-01-13T22:06:35.242Z,98542.91
2023-01-13T22:09:01.725Z,98554.53
2023-01-13T22:11:31.450Z,98563.31
2023-01-13T22:14:08.960Z,98566.56
2023-01-13T22:16:49.526Z,98561.88
2023-01-13T22:19:18.319Z,98565.47
2023-01-13T22:21:44.941Z,98570.91
2023-01-13T22:24:11.818Z,98572.44
2023-01-13T22:26:38.366Z,98575.22
2023-01-13T22:29:04.977Z,98566.19
2023-01-13T22:31:31.865Z,98581.09
2023-01-13T22:33:58.362Z,98582.91
2023-01-13T22:36:25.020Z,98575.84
2023-01-13T22:38:57.491Z,98570.53
2023-01-13T22:41:24.113Z,98573.78
2023-01-13T22:43:50.578Z,98581.34
2023-01-13T22:46:17.417Z,98585.19
2023-01-13T22:48:44.367Z,98588.31
2023-01-13T22:51:14.073Z,98586.66
2023-01-13T22:53:41.125Z,98589.16
2023-01-13T22:56:09.965Z,98588.81
2023-01-13T22:58:36.387Z,98591.59
2023-01-13T23:01:14.874Z,98590.28
2023-01-13T23:03:41.974Z,98598.66
2023-01-13T23:06:08.615Z,98595.31
2023-01-13T23:08:35.757Z,98599.88
2023-01-13T23:11:08.202Z,98589.88
2023-01-13T23:13:35.595Z,98589.66
2023-01-13T23:16:09.968Z,98587.59
2023-01-13T23:18:39.256Z,98587.97
2023-01-13T23:21:10.952Z,98581.63
2023-01-13T23:23:38.135Z,98581.25
2023-01-13T23:26:06.423Z,98587.25
2023-01-13T23:28:34.739Z,98586.28
2023-01-13T23:31:09.754Z,98585.78
2023-01-13T23:33:43.955Z,98580.63
2023-01-13T23:36:29.510Z,98588.81
2023-01-13T23:38:58.301Z,98597.97
2023-01-13T23:41:26.602Z,98602.50
2023-01-13T23:43:55.716Z,98604.81
2023-01-13T23:46:23.140Z,98595.19
2023-01-13T23:48:50.854Z,98592.56
2023-01-13T23:51:17.956Z,98590.03
2023-01-13T23:53:46.175Z,98587.38
2023-01-13T23:56:25.420Z,98580.50
2023-01-13T23:58:51.987Z,98578.97
